createdAt,value
2019-05-13T00:02:34.526Z,4.19
2019-05-13T00:05:39.764Z,4.35
2019-05-13T00:08:44.923Z,4.24
2019-05-13T00:11:50.151Z,4.32
2019-05-13T00:14:55.343Z,4.35
2019-05-13T00:18:00.517Z,4.23
2019-05-13T00:21:05.702Z,4.21
2019-05-13T00:24:10.826Z,4.22
2019-05-13T00:27:16.073Z,4.20
2019-05-13T00:30:23.390Z,4.16
2019-05-13T00:33:28.039Z,4.23
2019-05-13T00:36:33.686Z,4.22
2019-05-13T00:39:39.105Z,4.08
2019-05-13T00:42:45.518Z,4.09
2019-05-13T00:45:50.717Z,4.14
2019-05-13T00:48:55.907Z,3.85
2019-05-13T00:52:01.037Z,3.95
2019-05-13T00:55:09.956Z,4.01
2019-05-13T00:58:14.354Z,3.99
2019-05-13T01:01:19.549Z,3.95
2019-05-13T01:04:24.687Z,3.93
2019-05-13T01:07:29.830Z,3.90
2019-05-13T01:10:35.096Z,3.74
2019-05-13T01:13:40.244Z,3.79
2019-05-13T01:16:45.389Z,3.70
2019-05-13T01:19:50.629Z,3.73
2019-05-13T01:22:55.705Z,3.87
2019-05-13T01:26:00.890Z,3.85
2019-05-13T01:29:06.036Z,3.77
2019-05-13T01:32:11.195Z,3.63
2019-05-13T01:35:16.359Z,3.85
2019-05-13T01:38:23.886Z,3.82
2019-05-13T01:41:28.429Z,3.74
2019-05-13T01:44:34.546Z,3.89
2019-05-13T01:47:43.735Z,3.83
2019-05-13T01:50:48.136Z,3.86
2019-05-13T01:53:53.537Z,3.73
2019-05-13T01:56:58.690Z,3.65
2019-05-13T02:00:04.813Z,3.61
2019-05-13T02:03:11.136Z,3.73
2019-05-13T02:06:16.289Z,3.69
2019-05-13T02:09:24.318Z,3.77
2019-05-13T02:12:28.925Z,3.71
2019-05-13T02:15:34.050Z,3.67
2019-05-13T02:18:40.351Z,3.61
2019-05-13T02:21:45.519Z,3.71
2019-05-13T02:24:50.745Z,3.70
2019-05-13T02:27:55.895Z,3.69
2019-05-13T02:31:01.111Z,3.59
2019-05-13T02:34:07.687Z,3.52
2019-05-13T02:37:13.914Z,3.54
2019-05-13T02:40:22.408Z,3.57
2019-05-13T02:43:26.035Z,3.57
2019-05-13T02:46:33.819Z,3.53
2019-05-13T02:49:38.064Z,3.62
2019-05-13T02:52:44.308Z,3.58
2019-05-13T02:55:52.477Z,3.71
2019-05-13T02:58:56.667Z,3.55
2019-05-13T03:02:03.634Z,3.56
2019-05-13T03:05:13.173Z,3.50
2019-05-13T03:08:34.089Z,3.53
2019-05-13T03:11:24.051Z,3.57
2019-05-13T03:14:32.319Z,3.47
2019-05-13T03:17:43.321Z,3.42
2019-05-13T03:20:48.750Z,3.43
2019-05-13T03:23:54.057Z,3.42
2019-05-13T03:27:02.268Z,3.48
2019-05-13T03:30:06.278Z,3.48
2019-05-13T03:33:18.822Z,3.41
2019-05-13T03:36:25.175Z,3.35
2019-05-13T03:39:28.037Z,3.38
2019-05-13T03:42:34.996Z,3.40
2019-05-13T03:45:43.255Z,3.56
2019-05-13T03:48:52.906Z,3.54
2019-05-13T03:51:57.881Z,3.64
2019-05-13T03:55:03.499Z,3.80
2019-05-13T03:58:08.887Z,3.88
2019-05-13T04:01:14.089Z,4.02
2019-05-13T04:04:23.017Z,4.13
2019-05-13T04:07:26.088Z,4.24
2019-05-13T04:10:33.407Z,4.33
2019-05-13T04:13:38.124Z,4.83
2019-05-13T04:16:43.903Z,6.04
2019-05-13T04:19:52.975Z,6.82
2019-05-13T04:22:57.324Z,7.69
2019-05-13T04:26:03.202Z,8.12
2019-05-13T04:29:08.751Z,8.75
2019-05-13T04:32:13.883Z,10.13
2019-05-13T04:35:19.027Z,9.54
2019-05-13T04:38:24.239Z,10.08
2019-05-13T04:41:32.958Z,11.13
2019-05-13T04:44:36.363Z,11.03
2019-05-13T04:47:43.507Z,11.51
2019-05-13T04:50:48.824Z,11.22
2019-05-13T04:53:57.235Z,12.20
2019-05-13T04:57:02.933Z,12.44
2019-05-13T05:00:08.614Z,13.38
2019-05-13T05:03:32.617Z,13.43
2019-05-13T05:06:42.138Z,14.56
2019-05-13T05:10:33.031Z,14.56
2019-05-13T05:14:02.697Z,15.57
2019-05-13T05:17:47.699Z,15.19
2019-05-13T05:21:05.830Z,16.24
2019-05-13T05:24:28.149Z,16.67
2019-05-13T05:28:11.304Z,16.98
2019-05-13T05:31:41.429Z,17.13
2019-05-13T05:35:23.643Z,16.29
2019-05-13T05:38:57.015Z,17.36
2019-05-13T05:42:03.753Z,16.01
2019-05-13T05:45:11.462Z,16.80
2019-05-13T05:48:17.939Z,16.19
2019-05-13T05:51:25.779Z,16.84
2019-05-13T05:54:33.826Z,17.22
2019-05-13T05:57:54.235Z,17.84
2019-05-13T06:01:02.590Z,18.38
2019-05-13T06:04:07.581Z,18.00
2019-05-13T06:07:14.630Z,18.30
2019-05-13T06:10:19.844Z,17.32
2019-05-13T06:13:25.136Z,18.99
2019-05-13T06:16:32.020Z,18.10
2019-05-13T06:19:38.499Z,18.39
2019-05-13T06:22:44.690Z,18.87
2019-05-13T06:26:17.565Z,17.50
2019-05-13T06:29:31.820Z,18.44
2019-05-13T06:32:36.685Z,18.72
2019-05-13T06:35:44.796Z,18.38
2019-05-13T06:38:51.363Z,18.52
2019-05-13T06:41:57.091Z,18.34
2019-05-13T06:45:02.398Z,18.03
2019-05-13T06:48:11.477Z,16.99
2019-05-13T06:51:15.818Z,15.95
2019-05-13T06:54:22.000Z,14.58
2019-05-13T06:57:27.393Z,14.29
2019-05-13T07:00:34.663Z,14.12
2019-05-13T07:03:41.840Z,13.92
2019-05-13T07:06:47.616Z,13.58
2019-05-13T07:09:52.854Z,13.59
2019-05-13T07:12:58.133Z,12.45
2019-05-13T07:16:03.270Z,12.79
2019-05-13T07:19:08.409Z,13.17
2019-05-13T07:22:13.561Z,13.74
2019-05-13T07:25:18.721Z,13.58
2019-05-13T07:28:24.047Z,13.05
2019-05-13T07:31:29.218Z,12.92
2019-05-13T07:34:34.461Z,12.31
2019-05-13T07:37:42.467Z,12.48
2019-05-13T07:40:52.676Z,13.27
2019-05-13T07:43:57.946Z,12.56
2019-05-13T07:47:03.872Z,12.31
2019-05-13T07:50:09.180Z,12.42
2019-05-13T07:53:19.160Z,12.58
2019-05-13T07:56:24.172Z,12.97
2019-05-13T07:59:31.517Z,12.26
2019-05-13T08:02:37.517Z,12.32
2019-05-13T08:05:42.631Z,12.18
2019-05-13T08:08:47.795Z,12.10
2019-05-13T08:12:05.396Z,12.04
2019-05-13T08:15:02.936Z,12.10
2019-05-13T08:18:06.919Z,12.04
2019-05-13T08:21:12.398Z,11.88
2019-05-13T08:24:17.787Z,12.13
2019-05-13T08:27:30.227Z,12.36
2019-05-13T08:30:31.874Z,12.18
2019-05-13T08:33:36.867Z,12.26
2019-05-13T08:36:42.712Z,12.21
2019-05-13T08:39:48.210Z,12.10
2019-05-13T08:42:53.423Z,11.82
2019-05-13T08:46:01.905Z,12.04
2019-05-13T08:49:06.784Z,11.96
2019-05-13T08:52:12.293Z,11.83
2019-05-13T08:55:18.442Z,11.78
2019-05-13T08:58:28.042Z,12.04
2019-05-13T09:01:33.530Z,12.49
2019-05-13T09:04:42.004Z,12.53
2019-05-13T09:07:48.647Z,12.32
2019-05-13T09:10:56.822Z,12.42
2019-05-13T09:14:02.336Z,12.27
2019-05-13T09:17:08.743Z,12.33
2019-05-13T09:20:14.183Z,12.29
2019-05-13T09:23:22.032Z,12.16
2019-05-13T09:26:26.287Z,12.44
2019-05-13T09:29:32.367Z,12.40
2019-05-13T09:32:37.737Z,12.06
2019-05-13T09:35:42.941Z,12.32
2019-05-13T09:38:48.695Z,12.29
2019-05-13T09:41:53.842Z,12.37
2019-05-13T09:44:58.966Z,12.35
2019-05-13T09:48:05.157Z,12.41
2019-05-13T09:51:12.427Z,12.69
2019-05-13T09:54:17.167Z,12.47
2019-05-13T09:57:22.253Z,12.50
2019-05-13T10:00:27.426Z,12.45
2019-05-13T10:03:33.226Z,12.20
2019-05-13T10:06:38.607Z,12.64
2019-05-13T10:09:48.098Z,13.01
2019-05-13T10:13:07.418Z,13.02
2019-05-13T10:15:59.128Z,13.10
2019-05-13T10:19:04.257Z,12.99
2019-05-13T10:22:11.792Z,13.10
2019-05-13T10:25:19.206Z,12.96
2019-05-13T10:28:34.306Z,12.94
2019-05-13T10:31:41.815Z,12.69
2019-05-13T10:34:47.162Z,12.97
2019-05-13T10:37:52.452Z,13.35
2019-05-13T10:41:02.858Z,13.33
2019-05-13T10:44:06.902Z,13.01
2019-05-13T10:47:12.254Z,12.99
2019-05-13T10:50:17.521Z,13.17
2019-05-13T10:53:22.766Z,12.88
2019-05-13T10:56:32.809Z,12.87
2019-05-13T10:59:37.567Z,12.93
2019-05-13T11:02:42.779Z,12.93
2019-05-13T11:05:52.594Z,13.35
2019-05-13T11:08:58.401Z,13.50
2019-05-13T11:12:04.519Z,13.60
2019-05-13T11:15:11.472Z,13.67
2019-05-13T11:18:19.829Z,13.56
2019-05-13T11:21:25.908Z,13.59
2019-05-13T11:24:32.487Z,13.68
2019-05-13T11:27:38.000Z,13.54
2019-05-13T11:30:43.601Z,13.53
2019-05-13T11:33:51.792Z,13.67
2019-05-13T11:36:55.934Z,13.73
2019-05-13T11:40:02.774Z,13.73
2019-05-13T11:43:07.969Z,13.58
2019-05-13T11:46:13.169Z,13.73
2019-05-13T11:49:18.404Z,13.79
2019-05-13T11:52:23.718Z,13.84
2019-05-13T11:55:29.069Z,13.81
2019-05-13T11:58:36.006Z,13.69
2019-05-13T12:01:42.706Z,13.71
2019-05-13T12:04:48.269Z,13.88
2019-05-13T12:07:53.664Z,14.09
2019-05-13T12:10:58.847Z,14.14
2019-05-13T12:14:04.749Z,14.11
2019-05-13T12:17:13.914Z,14.30
2019-05-13T12:20:16.922Z,14.20
2019-05-13T12:23:22.243Z,14.36
2019-05-13T12:26:27.452Z,14.21
2019-05-13T12:29:32.677Z,14.41
2019-05-13T12:32:37.918Z,14.35
2019-05-13T12:35:43.060Z,14.27
2019-05-13T12:38:48.239Z,14.35
2019-05-13T12:41:54.051Z,14.32
2019-05-13T12:45:08.406Z,14.34
2019-05-13T12:48:06.430Z,14.24
2019-05-13T12:51:13.435Z,14.22
2019-05-13T12:54:18.933Z,14.43
2019-05-13T12:57:24.178Z,14.32
2019-05-13T13:00:30.216Z,14.06
2019-05-13T13:03:36.718Z,14.20
2019-05-13T13:06:45.958Z,14.11
2019-05-13T13:09:53.631Z,13.97
2019-05-13T13:12:58.062Z,14.27
2019-05-13T13:16:03.813Z,14.18
2019-05-13T13:19:09.082Z,14.26
2019-05-13T13:22:14.313Z,14.33
2019-05-13T13:25:23.786Z,14.20
2019-05-13T13:28:29.042Z,14.00
2019-05-13T13:31:34.279Z,14.32
2019-05-13T13:34:43.622Z,14.27
2019-05-13T13:37:46.598Z,14.69
2019-05-13T13:40:53.746Z,14.58
2019-05-13T13:44:04.706Z,14.41
2019-05-13T13:47:06.175Z,14.58
2019-05-13T13:50:11.997Z,14.05
2019-05-13T13:53:17.158Z,14.09
2019-05-13T13:56:25.314Z,14.41
2019-05-13T13:59:35.591Z,14.65
2019-05-13T14:02:37.147Z,14.98
2019-05-13T14:05:45.889Z,15.04
2019-05-13T14:08:51.951Z,14.97
2019-05-13T14:11:57.378Z,15.30
2019-05-13T14:15:02.490Z,14.95
2019-05-13T14:18:07.885Z,14.43
2019-05-13T14:21:13.088Z,14.77
2019-05-13T14:24:18.400Z,15.06
2019-05-13T14:27:23.631Z,14.95
2019-05-13T14:30:30.795Z,14.65
2019-05-13T14:33:35.841Z,15.03
2019-05-13T14:36:42.118Z,14.97
2019-05-13T14:39:47.383Z,15.13
2019-05-13T14:42:53.533Z,14.73
2019-05-13T14:46:02.345Z,14.63
2019-05-13T14:49:07.949Z,14.17
2019-05-13T14:52:13.118Z,14.45
2019-05-13T14:55:18.374Z,14.51
2019-05-13T14:58:23.514Z,13.98
2019-05-13T15:01:28.718Z,14.23
2019-05-13T15:04:33.989Z,14.32
2019-05-13T15:07:42.178Z,14.24
2019-05-13T15:10:47.202Z,14.27
2019-05-13T15:13:52.419Z,14.19
2019-05-13T15:17:03.027Z,14.05
2019-05-13T15:20:06.359Z,14.27
2019-05-13T15:23:12.104Z,14.17
2019-05-13T15:26:17.473Z,14.06
2019-05-13T15:29:22.636Z,13.97
2019-05-13T15:32:32.767Z,14.07
2019-05-13T15:35:35.503Z,13.91
2019-05-13T15:38:41.408Z,14.20
2019-05-13T15:41:46.759Z,14.36
2019-05-13T15:44:53.118Z,14.45
2019-05-13T15:47:58.550Z,14.30
2019-05-13T15:51:04.796Z,14.29
2019-05-13T15:54:14.984Z,14.29
2019-05-13T15:57:16.811Z,14.19
2019-05-13T16:00:22.124Z,13.94
2019-05-13T16:03:27.281Z,14.37
2019-05-13T16:06:32.401Z,14.23
2019-05-13T16:09:37.569Z,14.19
2019-05-13T16:12:42.695Z,14.07
2019-05-13T16:15:47.838Z,14.20
2019-05-13T16:18:53.212Z,13.96
2019-05-13T16:22:01.329Z,13.79
2019-05-13T16:25:09.429Z,13.84
2019-05-13T16:28:14.629Z,13.88
2019-05-13T16:31:19.851Z,13.83
2019-05-13T16:34:25.028Z,13.89
2019-05-13T16:37:31.402Z,13.90
2019-05-13T16:40:36.980Z,13.75
2019-05-13T16:43:42.769Z,13.52
2019-05-13T16:46:48.116Z,13.26
2019-05-13T16:49:53.549Z,13.30
2019-05-13T16:52:58.750Z,13.22
2019-05-13T16:56:03.931Z,13.04
2019-05-13T16:59:09.110Z,13.24
2019-05-13T17:02:14.260Z,13.31
2019-05-13T17:05:19.486Z,13.18
2019-05-13T17:08:24.636Z,13.22
2019-05-13T17:11:32.007Z,13.18
2019-05-13T17:14:36.646Z,13.11
2019-05-13T17:17:48.647Z,12.96
2019-05-13T17:20:53.904Z,13.10
2019-05-13T17:24:01.367Z,13.04
2019-05-13T17:27:05.966Z,13.04
2019-05-13T17:30:11.728Z,12.74
2019-05-13T17:33:16.976Z,12.58
2019-05-13T17:36:22.144Z,12.40
2019-05-13T17:39:27.374Z,12.25
2019-05-13T17:42:32.551Z,12.12
2019-05-13T17:45:37.784Z,12.06
2019-05-13T17:48:42.925Z,11.88
2019-05-13T17:51:51.534Z,11.89
2019-05-13T17:54:56.134Z,11.94
2019-05-13T17:58:01.537Z,11.76
2019-05-13T18:01:06.802Z,11.71
2019-05-13T18:04:14.222Z,11.71
2019-05-13T18:07:21.420Z,11.46
2019-05-13T18:10:26.686Z,11.34
2019-05-13T18:13:32.176Z,11.15
2019-05-13T18:16:37.419Z,11.17
2019-05-13T18:19:42.628Z,11.23
2019-05-13T18:22:47.836Z,11.00
2019-05-13T18:25:52.971Z,10.99
2019-05-13T18:28:58.100Z,10.87
2019-05-13T18:32:03.236Z,10.66
2019-05-13T18:35:08.481Z,10.65
2019-05-13T18:38:13.723Z,10.56
2019-05-13T18:41:21.192Z,10.40
2019-05-13T18:44:25.844Z,10.24
2019-05-13T18:47:31.610Z,10.25
2019-05-13T18:50:41.939Z,10.34
2019-05-13T18:53:46.923Z,10.03
2019-05-13T18:56:53.772Z,10.05
2019-05-13T18:59:59.008Z,9.65
2019-05-13T19:03:04.162Z,9.50
2019-05-13T19:06:11.459Z,9.65
2019-05-13T19:09:16.135Z,9.48
2019-05-13T19:12:22.008Z,9.21
2019-05-13T19:15:27.426Z,8.98
2019-05-13T19:18:48.668Z,9.35
2019-05-13T19:21:57.572Z,9.01
2019-05-13T19:25:02.772Z,8.92
2019-05-13T19:28:08.402Z,8.75
2019-05-13T19:31:13.641Z,8.61
2019-05-13T19:34:18.825Z,8.39
2019-05-13T19:37:23.996Z,8.41
2019-05-13T19:40:31.225Z,8.20
2019-05-13T19:43:36.666Z,8.26
2019-05-13T19:46:42.862Z,8.12
2019-05-13T19:49:48.204Z,8.03
2019-05-13T19:52:53.576Z,7.90
2019-05-13T19:56:01.464Z,7.77
2019-05-13T19:59:07.100Z,7.44
2019-05-13T20:02:12.483Z,7.47
2019-05-13T20:05:20.517Z,7.33
2019-05-13T20:08:25.816Z,7.33
2019-05-13T20:11:31.158Z,7.04
2019-05-13T20:14:36.283Z,6.95
2019-05-13T20:17:41.820Z,6.74
2019-05-13T20:20:47.179Z,6.76
2019-05-13T20:23:53.925Z,6.87
2019-05-13T20:27:02.245Z,6.91
2019-05-13T20:30:08.675Z,6.94
2019-05-13T20:33:13.828Z,6.79
2019-05-13T20:36:18.975Z,6.91
2019-05-13T20:39:25.301Z,6.69
2019-05-13T20:42:30.526Z,6.63
2019-05-13T20:45:35.841Z,6.57
2019-05-13T20:48:41.244Z,6.36
2019-05-13T20:51:46.647Z,6.28
2019-05-13T20:54:52.005Z,6.17
2019-05-13T20:57:57.247Z,6.21
2019-05-13T21:01:02.658Z,5.98
2019-05-13T21:04:08.961Z,5.90
2019-05-13T21:07:14.222Z,5.90
2019-05-13T21:10:21.198Z,5.71
2019-05-13T21:13:33.623Z,5.63
2019-05-13T21:16:37.077Z,5.67
2019-05-13T21:19:42.862Z,5.68
2019-05-13T21:22:48.280Z,5.55
2019-05-13T21:25:53.457Z,5.43
2019-05-13T21:28:58.620Z,5.27
2019-05-13T21:32:03.841Z,5.07
2019-05-13T21:35:11.620Z,5.07
2019-05-13T21:38:16.147Z,5.18
2019-05-13T21:41:21.347Z,5.24
2019-05-13T21:44:26.557Z,5.18
2019-05-13T21:47:31.771Z,5.18
2019-05-13T21:50:37.606Z,5.15
2019-05-13T21:53:42.957Z,5.09
2019-05-13T21:56:48.206Z,5.08
2019-05-13T21:59:53.592Z,5.06
2019-05-13T22:02:58.733Z,5.00
2019-05-13T22:06:04.047Z,4.96
2019-05-13T22:09:11.713Z,4.90
2019-05-13T22:12:17.247Z,4.89
2019-05-13T22:15:22.366Z,4.86
2019-05-13T22:18:27.719Z,4.74
2019-05-13T22:21:34.062Z,4.81
2019-05-13T22:24:41.614Z,4.73
2019-05-13T22:27:46.141Z,4.69
2019-05-13T22:30:51.798Z,4.68
2019-05-13T22:33:57.074Z,4.71
2019-05-13T22:37:02.629Z,4.67
2019-05-13T22:40:11.082Z,4.66
2019-05-13T22:43:17.453Z,4.65
2019-05-13T22:46:24.954Z,4.60
2019-05-13T22:49:31.219Z,4.56
2019-05-13T22:52:36.502Z,4.42
2019-05-13T22:55:41.984Z,4.51
2019-05-13T22:58:47.398Z,4.41
2019-05-13T23:01:54.978Z,4.35
2019-05-13T23:05:01.732Z,4.39
2019-05-13T23:08:07.018Z,4.43
2019-05-13T23:11:12.173Z,4.37
2019-05-13T23:14:17.291Z,4.30
2019-05-13T23:17:22.444Z,4.20
2019-05-13T23:20:27.651Z,4.23
2019-05-13T23:23:32.821Z,4.29
2019-05-13T23:26:38.081Z,4.38
2019-05-13T23:29:43.226Z,4.34
2019-05-13T23:32:48.394Z,4.30
2019-05-13T23:35:53.600Z,4.21
2019-05-13T23:39:00.938Z,4.26
2019-05-13T23:42:05.778Z,4.36
2019-05-13T23:45:12.286Z,4.32
2019-05-13T23:48:17.488Z,4.44
2019-05-13T23:51:22.663Z,4.32
2019-05-13T23:54:27.822Z,4.42
2019-05-13T23:57:32.957Z,4.48
